Overview Statistics Trail Chart Weather Telemetry Raw packets
 

This is the latest recevied weather packets stored in our database for station/object HA2SKA-1. If no packets are shown the sender has not sent any weather packets the latest 10 day(s).

<< 3 4 5 6 7 8 9 >>
Time Temp. Humidity Pressure Rain* Wind** Luminosity Snow
1788554109 27.78° C 61% 1016.8 hPa - - - -
1788553209 27.78° C 60% 1016.8 hPa - - - -
1788552309 26.67° C 64% 1017 hPa - - - -
1788551409 27.22° C 62% 1017 hPa - - - -
1788550508 27.78° C 59% 1017.2 hPa - - - -
1788549608 28.33° C 58% 1017.2 hPa - - - -
1788548708 27.78° C 60% 1017.2 hPa - - - -
1788547808 27.78° C 60% 1017.3 hPa - - - -
1788546908 27.78° C 58% 1017.3 hPa - - - -
1788546008 28.33° C 57% 1017.3 hPa - - - -
1788545108 28.89° C 56% 1017.2 hPa - - - -
1788544208 28.89° C 55% 1017.2 hPa - - - -
1788543308 29.44° C 53% 1017.2 hPa - - - -
1788542407 30.56° C 49% 1017.2 hPa - - - -
1788541507 30.56° C 48% 1017.3 hPa - - - -
1788540607 31.67° C 46% 1017.5 hPa - - - -
1788539707 31.67° C 46% 1017.5 hPa - - - -
1788538807 31.67° C 44% 1017.4 hPa - - - -
1788537907 32.22° C 44% 1017.6 hPa - - - -
1788537007 32.22° C 43% 1017.8 hPa - - - -
1788536107 32.22° C 42% 1017.9 hPa - - - -
1788535222 33.33° C 41% 1018 hPa - - - -
1788534307 33.33° C 41% 1018.1 hPa - - - -
1788533406 33.33° C 40% 1018.2 hPa - - - -
1788532506 33.89° C 39% 1018.4 hPa - - - -

* Rain since midnight (hover to see other rain measurements)
** Current wind speed in m/s (hover to see current wind gust speed)